sensor_id;sensor_type;location;lat;lon;timestamp;P1;durP1;ratioP1;P2;durP2;ratioP2
2684;SDS011;1352;48.446;9.156;2022-10-29T00:02:20;9.10;;;3.50;;
2684;SDS011;1352;48.446;9.156;2022-10-29T00:04:47;23.80;;;4.43;;
2684;SDS011;1352;48.446;9.156;2022-10-29T00:07:17;9.23;;;4.30;;
2684;SDS011;1352;48.446;9.156;2022-10-29T00:09:43;9.53;;;4.57;;
2684;SDS011;1352;48.446;9.156;2022-10-29T00:12:10;7.17;;;4.37;;
2684;SDS011;1352;48.446;9.156;2022-10-29T00:14:37;9.40;;;4.20;;
2684;SDS011;1352;48.446;9.156;2022-10-29T00:17:04;12.60;;;5.10;;
2684;SDS011;1352;48.446;9.156;2022-10-29T00:19:33;16.37;;;4.50;;
2684;SDS011;1352;48.446;9.156;2022-10-29T00:22:00;9.23;;;3.77;;
2684;SDS011;1352;48.446;9.156;2022-10-29T00:24:27;12.13;;;4.27;;
2684;SDS011;1352;48.446;9.156;2022-10-29T00:26:54;13.03;;;4.03;;
2684;SDS011;1352;48.446;9.156;2022-10-29T00:29:21;7.50;;;3.97;;
2684;SDS011;1352;48.446;9.156;2022-10-29T00:31:48;11.90;;;4.80;;
2684;SDS011;1352;48.446;9.156;2022-10-29T00:34:15;8.20;;;4.80;;
2684;SDS011;1352;48.446;9.156;2022-10-29T00:36:46;7.40;;;5.43;;
2684;SDS011;1352;48.446;9.156;2022-10-29T00:39:13;11.00;;;7.13;;
2684;SDS011;1352;48.446;9.156;2022-10-29T00:41:41;13.70;;;5.13;;
2684;SDS011;1352;48.446;9.156;2022-10-29T00:44:28;8.20;;;4.53;;
2684;SDS011;1352;48.446;9.156;2022-10-29T00:47:09;10.43;;;4.73;;
2684;SDS011;1352;48.446;9.156;2022-10-29T00:49:42;8.30;;;4.73;;
2684;SDS011;1352;48.446;9.156;2022-10-29T00:52:13;8.90;;;3.80;;
2684;SDS011;1352;48.446;9.156;2022-10-29T00:54:42;9.63;;;4.43;;
2684;SDS011;1352;48.446;9.156;2022-10-29T00:57:13;13.87;;;5.43;;
2684;SDS011;1352;48.446;9.156;2022-10-29T00:59:44;9.07;;;4.73;;
2684;SDS011;1352;48.446;9.156;2022-10-29T01:02:13;9.80;;;4.50;;
2684;SDS011;1352;48.446;9.156;2022-10-29T01:04:41;8.30;;;4.17;;
2684;SDS011;1352;48.446;9.156;2022-10-29T01:07:08;7.00;;;4.50;;
2684;SDS011;1352;48.446;9.156;2022-10-29T01:09:38;8.10;;;4.93;;
2684;SDS011;1352;48.446;9.156;2022-10-29T01:12:13;10.60;;;4.80;;
2684;SDS011;1352;48.446;9.156;2022-10-29T01:14:56;12.03;;;4.87;;
2684;SDS011;1352;48.446;9.156;2022-10-29T01:17:32;10.33;;;4.07;;
2684;SDS011;1352;48.446;9.156;2022-10-29T01:20:31;9.87;;;4.97;;
2684;SDS011;1352;48.446;9.156;2022-10-29T01:26:20;11.53;;;4.90;;
2684;SDS011;1352;48.446;9.156;2022-10-29T01:29:10;12.43;;;4.40;;
2684;SDS011;1352;48.446;9.156;2022-10-29T01:31:51;11.80;;;5.00;;
2684;SDS011;1352;48.446;9.156;2022-10-29T01:34:21;10.83;;;4.20;;
2684;SDS011;1352;48.446;9.156;2022-10-29T01:36:54;8.83;;;4.47;;
2684;SDS011;1352;48.446;9.156;2022-10-29T01:39:25;8.90;;;4.50;;
2684;SDS011;1352;48.446;9.156;2022-10-29T01:42:00;9.93;;;6.03;;
2684;SDS011;1352;48.446;9.156;2022-10-29T01:44:32;9.33;;;5.13;;
2684;SDS011;1352;48.446;9.156;2022-10-29T01:47:04;11.00;;;5.13;;
2684;SDS011;1352;48.446;9.156;2022-10-29T01:49:38;9.83;;;5.70;;
2684;SDS011;1352;48.446;9.156;2022-10-29T01:52:08;21.83;;;4.77;;
2684;SDS011;1352;48.446;9.156;2022-10-29T01:54:40;12.93;;;4.60;;
2684;SDS011;1352;48.446;9.156;2022-10-29T01:57:27;5.33;;;4.00;;
2684;SDS011;1352;48.446;9.156;2022-10-29T01:59:56;7.03;;;4.30;;
2684;SDS011;1352;48.446;9.156;2022-10-29T02:02:29;4.87;;;3.47;;
2684;SDS011;1352;48.446;9.156;2022-10-29T02:05:10;12.40;;;4.20;;
2684;SDS011;1352;48.446;9.156;2022-10-29T02:07:44;11.50;;;4.60;;
2684;SDS011;1352;48.446;9.156;2022-10-29T02:10:18;10.00;;;4.63;;
2684;SDS011;1352;48.446;9.156;2022-10-29T02:12:52;11.73;;;4.33;;
2684;SDS011;1352;48.446;9.156;2022-10-29T02:15:22;9.77;;;4.27;;
2684;SDS011;1352;48.446;9.156;2022-10-29T02:17:58;11.87;;;5.13;;
2684;SDS011;1352;48.446;9.156;2022-10-29T02:20:26;9.37;;;4.70;;
2684;SDS011;1352;48.446;9.156;2022-10-29T02:22:53;10.83;;;5.03;;
2684;SDS011;1352;48.446;9.156;2022-10-29T02:25:20;9.73;;;4.63;;
2684;SDS011;1352;48.446;9.156;2022-10-29T02:27:47;8.83;;;4.50;;
2684;SDS011;1352;48.446;9.156;2022-10-29T02:30:14;12.47;;;4.50;;
2684;SDS011;1352;48.446;9.156;2022-10-29T02:32:41;8.77;;;4.70;;
2684;SDS011;1352;48.446;9.156;2022-10-29T02:35:10;17.30;;;5.27;;
2684;SDS011;1352;48.446;9.156;2022-10-29T02:37:37;9.90;;;5.20;;
2684;SDS011;1352;48.446;9.156;2022-10-29T02:40:04;9.23;;;4.90;;
2684;SDS011;1352;48.446;9.156;2022-10-29T02:42:32;9.10;;;4.57;;
2684;SDS011;1352;48.446;9.156;2022-10-29T02:44:59;9.83;;;4.70;;
2684;SDS011;1352;48.446;9.156;2022-10-29T02:47:26;9.57;;;4.53;;
2684;SDS011;1352;48.446;9.156;2022-10-29T02:49:53;9.37;;;6.00;;
2684;SDS011;1352;48.446;9.156;2022-10-29T02:52:22;11.07;;;5.83;;
2684;SDS011;1352;48.446;9.156;2022-10-29T02:54:49;5.00;;;4.07;;
2684;SDS011;1352;48.446;9.156;2022-10-29T02:57:16;9.67;;;5.47;;
2684;SDS011;1352;48.446;9.156;2022-10-29T02:59:43;10.20;;;5.40;;
2684;SDS011;1352;48.446;9.156;2022-10-29T03:02:10;9.50;;;5.20;;
2684;SDS011;1352;48.446;9.156;2022-10-29T03:04:36;11.87;;;4.80;;
2684;SDS011;1352;48.446;9.156;2022-10-29T03:07:05;13.43;;;5.17;;
2684;SDS011;1352;48.446;9.156;2022-10-29T03:09:36;6.70;;;4.60;;
2684;SDS011;1352;48.446;9.156;2022-10-29T03:12:04;12.00;;;5.47;;
2684;SDS011;1352;48.446;9.156;2022-10-29T03:14:31;8.87;;;5.03;;
2684;SDS011;1352;48.446;9.156;2022-10-29T03:16:58;9.33;;;5.13;;
2684;SDS011;1352;48.446;9.156;2022-10-29T03:19:25;8.83;;;5.43;;
2684;SDS011;1352;48.446;9.156;2022-10-29T03:21:52;9.43;;;5.00;;
2684;SDS011;1352;48.446;9.156;2022-10-29T03:24:19;7.73;;;5.33;;
2684;SDS011;1352;48.446;9.156;2022-10-29T03:26:47;8.40;;;4.63;;
2684;SDS011;1352;48.446;9.156;2022-10-29T03:29:14;11.23;;;5.23;;
2684;SDS011;1352;48.446;9.156;2022-10-29T03:31:41;12.33;;;5.23;;
2684;SDS011;1352;48.446;9.156;2022-10-29T03:34:08;22.63;;;6.10;;
2684;SDS011;1352;48.446;9.156;2022-10-29T03:36:35;6.33;;;4.77;;
2684;SDS011;1352;48.446;9.156;2022-10-29T03:39:02;8.17;;;4.93;;
2684;SDS011;1352;48.446;9.156;2022-10-29T03:41:29;9.80;;;5.03;;
2684;SDS011;1352;48.446;9.156;2022-10-29T03:43:58;10.10;;;5.33;;
2684;SDS011;1352;48.446;9.156;2022-10-29T03:46:25;10.43;;;5.10;;
2684;SDS011;1352;48.446;9.156;2022-10-29T03:48:52;12.17;;;5.20;;
2684;SDS011;1352;48.446;9.156;2022-10-29T03:51:19;7.87;;;4.80;;
2684;SDS011;1352;48.446;9.156;2022-10-29T03:53:46;7.70;;;4.60;;
2684;SDS011;1352;48.446;9.156;2022-10-29T03:56:13;11.03;;;5.00;;
2684;SDS011;1352;48.446;9.156;2022-10-29T03:58:40;10.33;;;4.90;;
2684;SDS011;1352;48.446;9.156;2022-10-29T04:01:09;7.90;;;4.40;;
2684;SDS011;1352;48.446;9.156;2022-10-29T04:03:37;8.73;;;4.27;;
2684;SDS011;1352;48.446;9.156;2022-10-29T04:06:09;10.60;;;4.80;;
2684;SDS011;1352;48.446;9.156;2022-10-29T04:08:37;8.30;;;4.73;;
2684;SDS011;1352;48.446;9.156;2022-10-29T04:11:08;7.07;;;4.10;;
2684;SDS011;1352;48.446;9.156;2022-10-29T04:13:35;8.77;;;5.00;;
2684;SDS011;1352;48.446;9.156;2022-10-29T04:16:02;9.87;;;5.10;;
2684;SDS011;1352;48.446;9.156;2022-10-29T04:18:31;12.50;;;4.97;;
2684;SDS011;1352;48.446;9.156;2022-10-29T04:20:59;8.10;;;4.20;;
2684;SDS011;1352;48.446;9.156;2022-10-29T04:23:27;7.23;;;4.53;;
2684;SDS011;1352;48.446;9.156;2022-10-29T04:25:54;5.80;;;4.23;;
2684;SDS011;1352;48.446;9.156;2022-10-29T04:28:22;13.73;;;4.90;;
2684;SDS011;1352;48.446;9.156;2022-10-29T04:30:49;8.20;;;4.90;;
2684;SDS011;1352;48.446;9.156;2022-10-29T04:33:16;7.43;;;4.53;;
2684;SDS011;1352;48.446;9.156;2022-10-29T04:35:49;11.33;;;4.80;;
2684;SDS011;1352;48.446;9.156;2022-10-29T04:38:17;9.00;;;5.20;;
2684;SDS011;1352;48.446;9.156;2022-10-29T04:40:44;18.70;;;5.30;;
2684;SDS011;1352;48.446;9.156;2022-10-29T04:43:11;7.63;;;4.50;;
2684;SDS011;1352;48.446;9.156;2022-10-29T04:45:38;5.37;;;4.17;;
2684;SDS011;1352;48.446;9.156;2022-10-29T04:48:05;12.50;;;3.90;;
2684;SDS011;1352;48.446;9.156;2022-10-29T04:50:33;6.80;;;4.37;;
2684;SDS011;1352;48.446;9.156;2022-10-29T04:53:03;5.33;;;4.30;;
2684;SDS011;1352;48.446;9.156;2022-10-29T04:55:34;4.97;;;3.87;;
2684;SDS011;1352;48.446;9.156;2022-10-29T04:58:01;6.10;;;3.73;;
2684;SDS011;1352;48.446;9.156;2022-10-29T05:00:28;7.00;;;5.20;;
2684;SDS011;1352;48.446;9.156;2022-10-29T05:02:55;15.57;;;5.37;;
2684;SDS011;1352;48.446;9.156;2022-10-29T05:05:22;8.63;;;4.20;;
2684;SDS011;1352;48.446;9.156;2022-10-29T05:07:55;7.43;;;4.27;;
2684;SDS011;1352;48.446;9.156;2022-10-29T05:10:24;7.50;;;5.07;;
2684;SDS011;1352;48.446;9.156;2022-10-29T05:12:55;12.53;;;4.63;;
2684;SDS011;1352;48.446;9.156;2022-10-29T05:15:23;11.73;;;5.00;;
2684;SDS011;1352;48.446;9.156;2022-10-29T05:17:50;9.30;;;4.97;;
2684;SDS011;1352;48.446;9.156;2022-10-29T05:20:17;13.20;;;5.30;;
2684;SDS011;1352;48.446;9.156;2022-10-29T05:22:44;8.93;;;4.83;;
2684;SDS011;1352;48.446;9.156;2022-10-29T05:25:11;8.70;;;4.50;;
2684;SDS011;1352;48.446;9.156;2022-10-29T05:27:39;13.87;;;4.37;;
2684;SDS011;1352;48.446;9.156;2022-10-29T05:30:07;6.30;;;4.83;;
2684;SDS011;1352;48.446;9.156;2022-10-29T05:32:34;9.47;;;4.50;;
2684;SDS011;1352;48.446;9.156;2022-10-29T05:35:01;8.43;;;4.90;;
2684;SDS011;1352;48.446;9.156;2022-10-29T05:37:28;6.07;;;4.87;;
2684;SDS011;1352;48.446;9.156;2022-10-29T05:39:55;7.90;;;4.57;;
2684;SDS011;1352;48.446;9.156;2022-10-29T05:42:22;7.10;;;4.60;;
2684;SDS011;1352;48.446;9.156;2022-10-29T05:44:50;6.47;;;4.20;;
2684;SDS011;1352;48.446;9.156;2022-10-29T05:47:17;7.77;;;4.20;;
2684;SDS011;1352;48.446;9.156;2022-10-29T05:49:44;8.03;;;5.00;;
2684;SDS011;1352;48.446;9.156;2022-10-29T05:52:11;13.50;;;4.70;;
2684;SDS011;1352;48.446;9.156;2022-10-29T05:54:38;14.03;;;5.10;;
2684;SDS011;1352;48.446;9.156;2022-10-29T05:57:05;8.97;;;4.23;;
2684;SDS011;1352;48.446;9.156;2022-10-29T05:59:32;6.90;;;4.83;;
2684;SDS011;1352;48.446;9.156;2022-10-29T06:02:01;8.13;;;5.10;;
2684;SDS011;1352;48.446;9.156;2022-10-29T06:04:28;8.17;;;5.00;;
2684;SDS011;1352;48.446;9.156;2022-10-29T06:06:55;9.73;;;5.33;;
2684;SDS011;1352;48.446;9.156;2022-10-29T06:09:22;11.40;;;5.77;;
2684;SDS011;1352;48.446;9.156;2022-10-29T06:11:51;7.97;;;5.33;;
2684;SDS011;1352;48.446;9.156;2022-10-29T06:14:20;9.53;;;4.70;;
2684;SDS011;1352;48.446;9.156;2022-10-29T06:16:47;7.83;;;4.10;;
2684;SDS011;1352;48.446;9.156;2022-10-29T06:19:18;8.20;;;4.30;;
2684;SDS011;1352;48.446;9.156;2022-10-29T06:21:45;7.33;;;4.50;;
2684;SDS011;1352;48.446;9.156;2022-10-29T06:24:12;8.63;;;5.40;;
2684;SDS011;1352;48.446;9.156;2022-10-29T06:26:39;11.90;;;4.70;;
2684;SDS011;1352;48.446;9.156;2022-10-29T06:29:06;11.40;;;5.67;;
2684;SDS011;1352;48.446;9.156;2022-10-29T06:31:33;9.53;;;5.50;;
2684;SDS011;1352;48.446;9.156;2022-10-29T06:34:00;9.10;;;5.40;;
2684;SDS011;1352;48.446;9.156;2022-10-29T06:36:31;11.47;;;6.07;;
2684;SDS011;1352;48.446;9.156;2022-10-29T06:38:58;6.30;;;4.87;;
2684;SDS011;1352;48.446;9.156;2022-10-29T06:41:25;6.20;;;4.63;;
2684;SDS011;1352;48.446;9.156;2022-10-29T06:43:53;5.17;;;4.50;;
2684;SDS011;1352;48.446;9.156;2022-10-29T06:46:19;12.30;;;5.47;;
2684;SDS011;1352;48.446;9.156;2022-10-29T06:48:46;6.77;;;4.90;;
2684;SDS011;1352;48.446;9.156;2022-10-29T06:51:13;10.03;;;5.30;;
2684;SDS011;1352;48.446;9.156;2022-10-29T06:53:42;11.47;;;4.77;;
2684;SDS011;1352;48.446;9.156;2022-10-29T06:56:09;10.70;;;4.20;;
2684;SDS011;1352;48.446;9.156;2022-10-29T06:58:36;7.97;;;4.70;;
2684;SDS011;1352;48.446;9.156;2022-10-29T07:01:03;7.60;;;4.40;;
2684;SDS011;1352;48.446;9.156;2022-10-29T07:03:30;6.90;;;4.40;;
2684;SDS011;1352;48.446;9.156;2022-10-29T07:05:58;7.00;;;4.60;;
2684;SDS011;1352;48.446;9.156;2022-10-29T07:08:25;12.43;;;4.47;;
2684;SDS011;1352;48.446;9.156;2022-10-29T07:10:54;6.60;;;4.20;;
2684;SDS011;1352;48.446;9.156;2022-10-29T07:13:21;10.13;;;4.93;;
2684;SDS011;1352;48.446;9.156;2022-10-29T07:15:49;6.07;;;4.23;;
2684;SDS011;1352;48.446;9.156;2022-10-29T07:18:17;9.00;;;5.33;;
2684;SDS011;1352;48.446;9.156;2022-10-29T07:20:44;12.13;;;5.30;;
2684;SDS011;1352;48.446;9.156;2022-10-29T07:23:11;11.03;;;4.60;;
2684;SDS011;1352;48.446;9.156;2022-10-29T07:25:39;9.20;;;4.67;;
2684;SDS011;1352;48.446;9.156;2022-10-29T07:28:10;8.90;;;4.90;;
2684;SDS011;1352;48.446;9.156;2022-10-29T07:30:38;11.20;;;5.73;;
2684;SDS011;1352;48.446;9.156;2022-10-29T07:33:08;8.90;;;4.83;;
2684;SDS011;1352;48.446;9.156;2022-10-29T07:35:35;7.90;;;4.17;;
2684;SDS011;1352;48.446;9.156;2022-10-29T07:38:03;12.00;;;4.10;;
2684;SDS011;1352;48.446;9.156;2022-10-29T07:40:31;12.77;;;5.03;;
2684;SDS011;1352;48.446;9.156;2022-10-29T07:42:59;7.43;;;4.10;;
2684;SDS011;1352;48.446;9.156;2022-10-29T07:45:27;10.70;;;4.40;;
2684;SDS011;1352;48.446;9.156;2022-10-29T07:47:57;9.10;;;5.50;;
2684;SDS011;1352;48.446;9.156;2022-10-29T07:50:25;8.63;;;4.63;;
2684;SDS011;1352;48.446;9.156;2022-10-29T07:52:52;9.43;;;4.60;;
2684;SDS011;1352;48.446;9.156;2022-10-29T07:55:22;9.23;;;4.77;;
2684;SDS011;1352;48.446;9.156;2022-10-29T07:57:54;7.10;;;4.60;;
2684;SDS011;1352;48.446;9.156;2022-10-29T08:00:23;8.33;;;4.23;;
2684;SDS011;1352;48.446;9.156;2022-10-29T08:02:52;12.70;;;4.73;;
2684;SDS011;1352;48.446;9.156;2022-10-29T08:05:20;11.50;;;5.13;;
2684;SDS011;1352;48.446;9.156;2022-10-29T08:07:48;9.43;;;4.63;;
2684;SDS011;1352;48.446;9.156;2022-10-29T08:10:15;7.40;;;4.43;;
2684;SDS011;1352;48.446;9.156;2022-10-29T08:12:47;7.17;;;4.60;;
2684;SDS011;1352;48.446;9.156;2022-10-29T08:15:15;13.73;;;5.37;;
2684;SDS011;1352;48.446;9.156;2022-10-29T08:17:42;9.77;;;4.90;;
2684;SDS011;1352;48.446;9.156;2022-10-29T08:20:11;10.87;;;5.10;;
2684;SDS011;1352;48.446;9.156;2022-10-29T08:22:38;8.37;;;4.93;;
2684;SDS011;1352;48.446;9.156;2022-10-29T08:25:06;10.00;;;4.83;;
2684;SDS011;1352;48.446;9.156;2022-10-29T08:27:33;10.67;;;4.87;;
2684;SDS011;1352;48.446;9.156;2022-10-29T08:30:00;7.80;;;4.90;;
2684;SDS011;1352;48.446;9.156;2022-10-29T08:32:27;6.37;;;5.20;;
2684;SDS011;1352;48.446;9.156;2022-10-29T08:34:54;10.63;;;5.40;;
2684;SDS011;1352;48.446;9.156;2022-10-29T08:37:22;16.10;;;4.77;;
2684;SDS011;1352;48.446;9.156;2022-10-29T08:39:49;10.27;;;5.07;;
2684;SDS011;1352;48.446;9.156;2022-10-29T08:42:19;12.33;;;4.60;;
2684;SDS011;1352;48.446;9.156;2022-10-29T08:45:03;11.57;;;5.63;;
2684;SDS011;1352;48.446;9.156;2022-10-29T08:47:43;8.97;;;6.10;;
2684;SDS011;1352;48.446;9.156;2022-10-29T08:50:23;9.57;;;5.43;;
2684;SDS011;1352;48.446;9.156;2022-10-29T08:52:54;11.97;;;5.90;;
2684;SDS011;1352;48.446;9.156;2022-10-29T08:55:23;11.00;;;5.60;;
2684;SDS011;1352;48.446;9.156;2022-10-29T08:57:53;9.47;;;5.10;;
2684;SDS011;1352;48.446;9.156;2022-10-29T09:00:22;9.70;;;5.93;;
2684;SDS011;1352;48.446;9.156;2022-10-29T09:02:52;12.83;;;6.80;;
2684;SDS011;1352;48.446;9.156;2022-10-29T09:05:23;10.60;;;7.00;;
2684;SDS011;1352;48.446;9.156;2022-10-29T09:08:03;12.10;;;6.27;;
2684;SDS011;1352;48.446;9.156;2022-10-29T09:10:44;14.03;;;7.40;;
2684;SDS011;1352;48.446;9.156;2022-10-29T09:13:20;9.40;;;6.50;;
2684;SDS011;1352;48.446;9.156;2022-10-29T09:16:03;8.60;;;6.67;;
2684;SDS011;1352;48.446;9.156;2022-10-29T09:18:45;12.17;;;6.50;;
2684;SDS011;1352;48.446;9.156;2022-10-29T09:21:25;11.73;;;6.37;;
2684;SDS011;1352;48.446;9.156;2022-10-29T09:24:04;11.43;;;5.53;;
2684;SDS011;1352;48.446;9.156;2022-10-29T09:26:42;11.63;;;6.40;;
2684;SDS011;1352;48.446;9.156;2022-10-29T09:29:26;10.77;;;6.10;;
2684;SDS011;1352;48.446;9.156;2022-10-29T09:32:00;13.20;;;6.17;;
2684;SDS011;1352;48.446;9.156;2022-10-29T09:34:33;13.73;;;7.00;;
2684;SDS011;1352;48.446;9.156;2022-10-29T09:37:09;9.27;;;6.00;;
2684;SDS011;1352;48.446;9.156;2022-10-29T09:39:42;16.63;;;7.07;;
2684;SDS011;1352;48.446;9.156;2022-10-29T09:42:12;12.27;;;7.00;;
2684;SDS011;1352;48.446;9.156;2022-10-29T09:44:44;11.50;;;6.37;;
2684;SDS011;1352;48.446;9.156;2022-10-29T09:47:18;7.93;;;5.70;;
2684;SDS011;1352;48.446;9.156;2022-10-29T09:49:57;7.43;;;5.33;;
2684;SDS011;1352;48.446;9.156;2022-10-29T09:52:33;10.27;;;6.27;;
2684;SDS011;1352;48.446;9.156;2022-10-29T09:55:04;8.40;;;4.73;;
2684;SDS011;1352;48.446;9.156;2022-10-29T09:57:33;10.70;;;5.03;;
2684;SDS011;1352;48.446;9.156;2022-10-29T10:00:02;10.50;;;5.90;;
2684;SDS011;1352;48.446;9.156;2022-10-29T10:02:32;10.03;;;5.30;;
2684;SDS011;1352;48.446;9.156;2022-10-29T10:05:03;7.47;;;5.23;;
2684;SDS011;1352;48.446;9.156;2022-10-29T10:07:33;10.17;;;5.40;;
2684;SDS011;1352;48.446;9.156;2022-10-29T10:10:00;11.63;;;6.33;;
2684;SDS011;1352;48.446;9.156;2022-10-29T10:12:43;7.43;;;5.50;;
2684;SDS011;1352;48.446;9.156;2022-10-29T10:15:18;10.83;;;5.73;;
2684;SDS011;1352;48.446;9.156;2022-10-29T10:17:53;11.03;;;6.10;;
2684;SDS011;1352;48.446;9.156;2022-10-29T10:20:26;9.57;;;5.40;;
2684;SDS011;1352;48.446;9.156;2022-10-29T10:22:55;9.00;;;5.63;;
2684;SDS011;1352;48.446;9.156;2022-10-29T10:25:33;7.50;;;5.73;;
2684;SDS011;1352;48.446;9.156;2022-10-29T10:28:04;8.97;;;6.03;;
2684;SDS011;1352;48.446;9.156;2022-10-29T10:30:42;14.20;;;5.67;;
2684;SDS011;1352;48.446;9.156;2022-10-29T10:33:10;15.87;;;6.23;;
2684;SDS011;1352;48.446;9.156;2022-10-29T10:35:47;9.40;;;6.17;;
2684;SDS011;1352;48.446;9.156;2022-10-29T10:38:14;9.40;;;6.20;;
2684;SDS011;1352;48.446;9.156;2022-10-29T10:40:46;11.30;;;6.40;;
2684;SDS011;1352;48.446;9.156;2022-10-29T10:43:22;10.67;;;6.70;;
2684;SDS011;1352;48.446;9.156;2022-10-29T10:45:52;12.17;;;5.90;;
2684;SDS011;1352;48.446;9.156;2022-10-29T10:48:22;17.63;;;6.70;;
2684;SDS011;1352;48.446;9.156;2022-10-29T10:51:06;11.20;;;5.80;;
2684;SDS011;1352;48.446;9.156;2022-10-29T10:53:35;11.20;;;6.40;;
2684;SDS011;1352;48.446;9.156;2022-10-29T10:56:12;12.30;;;6.17;;
2684;SDS011;1352;48.446;9.156;2022-10-29T10:58:44;9.63;;;6.43;;
2684;SDS011;1352;48.446;9.156;2022-10-29T11:01:18;12.70;;;5.80;;
2684;SDS011;1352;48.446;9.156;2022-10-29T11:03:49;10.57;;;5.90;;
2684;SDS011;1352;48.446;9.156;2022-10-29T11:06:24;11.87;;;6.23;;
2684;SDS011;1352;48.446;9.156;2022-10-29T11:08:55;15.73;;;7.03;;
2684;SDS011;1352;48.446;9.156;2022-10-29T11:11:26;17.87;;;6.40;;
2684;SDS011;1352;48.446;9.156;2022-10-29T11:13:59;10.77;;;5.67;;
2684;SDS011;1352;48.446;9.156;2022-10-29T11:16:32;10.73;;;6.63;;
2684;SDS011;1352;48.446;9.156;2022-10-29T11:19:06;9.40;;;6.50;;
2684;SDS011;1352;48.446;9.156;2022-10-29T11:21:42;8.03;;;5.70;;
2684;SDS011;1352;48.446;9.156;2022-10-29T11:24:12;11.00;;;6.50;;
2684;SDS011;1352;48.446;9.156;2022-10-29T11:26:46;11.37;;;5.40;;
2684;SDS011;1352;48.446;9.156;2022-10-29T11:29:19;11.07;;;7.40;;
2684;SDS011;1352;48.446;9.156;2022-10-29T11:31:55;10.73;;;6.37;;
2684;SDS011;1352;48.446;9.156;2022-10-29T11:34:29;10.40;;;6.73;;
2684;SDS011;1352;48.446;9.156;2022-10-29T11:37:11;9.63;;;6.20;;
2684;SDS011;1352;48.446;9.156;2022-10-29T11:39:46;9.23;;;6.30;;
2684;SDS011;1352;48.446;9.156;2022-10-29T11:42:17;13.30;;;6.63;;
2684;SDS011;1352;48.446;9.156;2022-10-29T11:44:46;16.27;;;7.90;;
2684;SDS011;1352;48.446;9.156;2022-10-29T11:47:19;11.90;;;7.90;;
2684;SDS011;1352;48.446;9.156;2022-10-29T11:50:03;11.60;;;7.97;;
2684;SDS011;1352;48.446;9.156;2022-10-29T11:52:39;12.33;;;7.83;;
2684;SDS011;1352;48.446;9.156;2022-10-29T11:55:18;12.50;;;7.40;;
2684;SDS011;1352;48.446;9.156;2022-10-29T11:57:51;12.77;;;6.93;;
2684;SDS011;1352;48.446;9.156;2022-10-29T12:00:22;10.13;;;6.33;;
2684;SDS011;1352;48.446;9.156;2022-10-29T12:05:52;9.53;;;6.30;;
2684;SDS011;1352;48.446;9.156;2022-10-29T12:08:32;9.77;;;6.50;;
2684;SDS011;1352;48.446;9.156;2022-10-29T12:11:10;15.07;;;7.97;;
2684;SDS011;1352;48.446;9.156;2022-10-29T12:13:47;9.17;;;6.63;;
2684;SDS011;1352;48.446;9.156;2022-10-29T12:16:26;9.60;;;7.20;;
2684;SDS011;1352;48.446;9.156;2022-10-29T12:19:02;14.93;;;7.70;;
2684;SDS011;1352;48.446;9.156;2022-10-29T12:21:40;11.57;;;6.97;;
2684;SDS011;1352;48.446;9.156;2022-10-29T12:24:20;10.27;;;6.50;;
2684;SDS011;1352;48.446;9.156;2022-10-29T12:26:57;13.10;;;6.50;;
2684;SDS011;1352;48.446;9.156;2022-10-29T12:29:31;9.30;;;6.53;;
2684;SDS011;1352;48.446;9.156;2022-10-29T12:32:12;11.40;;;6.43;;
2684;SDS011;1352;48.446;9.156;2022-10-29T12:34:46;9.47;;;7.30;;
2684;SDS011;1352;48.446;9.156;2022-10-29T12:37:21;14.93;;;7.30;;
2684;SDS011;1352;48.446;9.156;2022-10-29T12:39:59;12.40;;;7.33;;
2684;SDS011;1352;48.446;9.156;2022-10-29T12:42:28;10.83;;;7.90;;
2684;SDS011;1352;48.446;9.156;2022-10-29T12:45:01;11.90;;;7.47;;
2684;SDS011;1352;48.446;9.156;2022-10-29T12:47:43;12.23;;;7.53;;
2684;SDS011;1352;48.446;9.156;2022-10-29T12:50:19;13.60;;;7.23;;
2684;SDS011;1352;48.446;9.156;2022-10-29T12:53:01;10.80;;;7.50;;
2684;SDS011;1352;48.446;9.156;2022-10-29T12:55:35;11.03;;;6.80;;
2684;SDS011;1352;48.446;9.156;2022-10-29T13:01:03;13.17;;;7.53;;
2684;SDS011;1352;48.446;9.156;2022-10-29T13:06:45;8.63;;;7.03;;
2684;SDS011;1352;48.446;9.156;2022-10-29T13:09:17;10.83;;;6.40;;
2684;SDS011;1352;48.446;9.156;2022-10-29T13:11:47;13.27;;;7.30;;
2684;SDS011;1352;48.446;9.156;2022-10-29T13:14:18;9.43;;;6.57;;
2684;SDS011;1352;48.446;9.156;2022-10-29T13:16:50;11.17;;;7.00;;
2684;SDS011;1352;48.446;9.156;2022-10-29T13:19:25;8.10;;;7.30;;
2684;SDS011;1352;48.446;9.156;2022-10-29T13:22:03;16.80;;;6.93;;
2684;SDS011;1352;48.446;9.156;2022-10-29T13:43:20;12.30;;;8.17;;
2684;SDS011;1352;48.446;9.156;2022-10-29T13:45:49;10.93;;;5.67;;
2684;SDS011;1352;48.446;9.156;2022-10-29T13:48:27;11.33;;;4.87;;
2684;SDS011;1352;48.446;9.156;2022-10-29T13:50:58;6.20;;;4.30;;
2684;SDS011;1352;48.446;9.156;2022-10-29T13:53:34;7.13;;;4.73;;
2684;SDS011;1352;48.446;9.156;2022-10-29T13:56:07;6.10;;;4.60;;
2684;SDS011;1352;48.446;9.156;2022-10-29T13:58:39;7.60;;;5.27;;
2684;SDS011;1352;48.446;9.156;2022-10-29T14:01:12;6.60;;;4.77;;
2684;SDS011;1352;48.446;9.156;2022-10-29T14:03:47;7.33;;;4.50;;
2684;SDS011;1352;48.446;9.156;2022-10-29T14:06:27;12.97;;;5.30;;
2684;SDS011;1352;48.446;9.156;2022-10-29T14:09:00;9.70;;;4.30;;
2684;SDS011;1352;48.446;9.156;2022-10-29T14:11:38;10.20;;;5.50;;
2684;SDS011;1352;48.446;9.156;2022-10-29T14:14:15;10.90;;;4.93;;
2684;SDS011;1352;48.446;9.156;2022-10-29T14:16:48;8.27;;;4.27;;
2684;SDS011;1352;48.446;9.156;2022-10-29T14:19:18;8.13;;;4.10;;
2684;SDS011;1352;48.446;9.156;2022-10-29T14:21:47;12.33;;;4.50;;
2684;SDS011;1352;48.446;9.156;2022-10-29T14:24:15;6.70;;;4.40;;
2684;SDS011;1352;48.446;9.156;2022-10-29T14:26:43;7.53;;;3.93;;
2684;SDS011;1352;48.446;9.156;2022-10-29T14:29:15;7.77;;;4.47;;
2684;SDS011;1352;48.446;9.156;2022-10-29T14:31:45;7.60;;;4.10;;
2684;SDS011;1352;48.446;9.156;2022-10-29T14:34:20;11.80;;;5.43;;
2684;SDS011;1352;48.446;9.156;2022-10-29T14:36:52;9.67;;;5.10;;
2684;SDS011;1352;48.446;9.156;2022-10-29T14:39:25;9.13;;;5.00;;
2684;SDS011;1352;48.446;9.156;2022-10-29T14:41:54;9.50;;;5.13;;
2684;SDS011;1352;48.446;9.156;2022-10-29T14:44:23;12.30;;;5.17;;
2684;SDS011;1352;48.446;9.156;2022-10-29T14:46:54;12.57;;;4.80;;
2684;SDS011;1352;48.446;9.156;2022-10-29T14:49:29;10.80;;;5.83;;
2684;SDS011;1352;48.446;9.156;2022-10-29T14:52:03;11.87;;;5.97;;
2684;SDS011;1352;48.446;9.156;2022-10-29T14:54:34;10.00;;;5.47;;
2684;SDS011;1352;48.446;9.156;2022-10-29T14:57:05;8.13;;;6.60;;
2684;SDS011;1352;48.446;9.156;2022-10-29T14:59:36;13.77;;;9.57;;
2684;SDS011;1352;48.446;9.156;2022-10-29T15:02:06;13.60;;;11.53;;
2684;SDS011;1352;48.446;9.156;2022-10-29T15:04:44;21.97;;;14.50;;
2684;SDS011;1352;48.446;9.156;2022-10-29T15:07:15;26.27;;;23.33;;
2684;SDS011;1352;48.446;9.156;2022-10-29T15:10:01;38.80;;;29.77;;
2684;SDS011;1352;48.446;9.156;2022-10-29T15:12:43;30.00;;;19.60;;
2684;SDS011;1352;48.446;9.156;2022-10-29T15:15:20;54.30;;;45.87;;
2684;SDS011;1352;48.446;9.156;2022-10-29T15:17:49;27.13;;;21.30;;
2684;SDS011;1352;48.446;9.156;2022-10-29T15:20:20;23.30;;;15.47;;
2684;SDS011;1352;48.446;9.156;2022-10-29T15:22:52;18.90;;;11.90;;
2684;SDS011;1352;48.446;9.156;2022-10-29T15:25:22;14.37;;;9.90;;
2684;SDS011;1352;48.446;9.156;2022-10-29T15:27:52;14.07;;;9.07;;
2684;SDS011;1352;48.446;9.156;2022-10-29T15:30:20;13.10;;;4.37;;
2684;SDS011;1352;48.446;9.156;2022-10-29T15:32:56;4.10;;;3.60;;
2684;SDS011;1352;48.446;9.156;2022-10-29T15:35:24;8.83;;;4.00;;
2684;SDS011;1352;48.446;9.156;2022-10-29T15:37:53;7.90;;;4.53;;
2684;SDS011;1352;48.446;9.156;2022-10-29T15:40:21;8.70;;;3.37;;
2684;SDS011;1352;48.446;9.156;2022-10-29T15:42:50;9.17;;;3.50;;
2684;SDS011;1352;48.446;9.156;2022-10-29T15:45:20;8.90;;;4.83;;
2684;SDS011;1352;48.446;9.156;2022-10-29T15:47:53;6.07;;;3.50;;
2684;SDS011;1352;48.446;9.156;2022-10-29T15:50:22;8.97;;;4.60;;
2684;SDS011;1352;48.446;9.156;2022-10-29T15:52:54;8.67;;;4.50;;
2684;SDS011;1352;48.446;9.156;2022-10-29T15:55:24;7.27;;;3.90;;
2684;SDS011;1352;48.446;9.156;2022-10-29T15:57:54;12.17;;;4.10;;
2684;SDS011;1352;48.446;9.156;2022-10-29T16:00:25;11.73;;;4.13;;
2684;SDS011;1352;48.446;9.156;2022-10-29T16:02:52;18.90;;;11.97;;